Strona główna
METAR-TAF:

METAR-TAF

Lotnisko :

Port lotniczy Szawle

Szawle, Litwa

Szerokość geograficzna: 55-53-38N, Długość geograficzna: 023-23-42E, wysokość: 135 m

Aktualna obserwacja pogody

Raport powstał 18 minut temu, godzina 21:50 UTC
Wiatr 6 kt od zachodnio-północny zachód
Temperatura 10°C
Wilgotność 93%
Ciśnienie 1018 hPa
Widzialność: 9000 m

METAR: EYSA 182150Z 30006KT 9000 NSC 10/09 Q1018 BLU TEMPO 1600 BR YLO2

czas: 01:08 (22:08 UTC)

Prognoza

Raport powstał 2 godziny i 4 minut temu, godzina 20:04 UTC
Prognoza ważna od 18 godzina 21 UTC do 19 godzina 06 UTC
Wiatr 8 kt od zachodnio-północny zachód
Widzialność: 5000 m
Rozproszone chmury na wysokości 500 ft
Płytka mgła, zamglenie
Przejściowo
od 18 godzina 21 UTC do 18 godzina 24 UTC
Widzialność: 2000 m
Przerywane chmury na wysokości 500 ft
Przejściowo
od 19 godzina 00 UTC do 19 godzina 06 UTC
Widzialność: 0800 m
na wysokości 300 ft
mgła

TAF: EYSA 182004Z 1821/1906 30008KT 5000 MIFG BR SCT005 TEMPO 1821/1824 2000 BKN005 TEMPO 1900/1906 0800 FG VV003

Obserwacja i prognoza pogody dla ponad 4000 lotnisk (raport METAR i TAF).

Dostępne stacje oznaczono żółtymi i czerwonymi punktami na mapie.

Najedź kursorem aby zobaczyć nazwę stacji.

Kliknij aby zobaczyć obserwacje i prognozy pogody.

Aby zmienić mapę: kliknij na zielony przycisk z czarnym krzyżykiem, aby powiększyć; na zielony przycisk z myślnikiem, aby pomniejszyć; na zielone strzałki, aby przejść do map sąsiednich.


METAR-TAF: